sensor_id;sensor_type;location;lat;lon;timestamp;P1;durP1;ratioP1;P2;durP2;ratioP2
50563;SDS011;36514;52.590;21.448;2023-10-19T00:01:32;70.36;;;46.99;;
50563;SDS011;36514;52.590;21.448;2023-10-19T00:11:27;86.82;;;57.56;;
50563;SDS011;36514;52.590;21.448;2023-10-19T00:21:23;87.79;;;55.08;;
50563;SDS011;36514;52.590;21.448;2023-10-19T00:31:19;84.94;;;51.35;;
50563;SDS011;36514;52.590;21.448;2023-10-19T00:41:15;90.49;;;57.75;;
50563;SDS011;36514;52.590;21.448;2023-10-19T00:51:11;82.57;;;55.34;;
50563;SDS011;36514;52.590;21.448;2023-10-19T01:01:07;101.06;;;61.51;;
50563;SDS011;36514;52.590;21.448;2023-10-19T01:11:02;99.31;;;61.82;;
50563;SDS011;36514;52.590;21.448;2023-10-19T01:20:58;104.05;;;61.12;;
50563;SDS011;36514;52.590;21.448;2023-10-19T01:30:54;111.15;;;64.19;;
50563;SDS011;36514;52.590;21.448;2023-10-19T01:40:50;113.33;;;68.87;;
50563;SDS011;36514;52.590;21.448;2023-10-19T01:50:45;99.54;;;62.53;;
50563;SDS011;36514;52.590;21.448;2023-10-19T02:00:40;110.63;;;66.85;;
50563;SDS011;36514;52.590;21.448;2023-10-19T02:10:36;122.45;;;75.53;;
50563;SDS011;36514;52.590;21.448;2023-10-19T02:20:33;120.77;;;71.44;;
50563;SDS011;36514;52.590;21.448;2023-10-19T02:30:29;122.05;;;75.08;;
50563;SDS011;36514;52.590;21.448;2023-10-19T02:40:26;118.75;;;74.37;;
50563;SDS011;36514;52.590;21.448;2023-10-19T02:50:22;120.85;;;72.70;;
50563;SDS011;36514;52.590;21.448;2023-10-19T03:00:18;111.50;;;70.63;;
50563;SDS011;36514;52.590;21.448;2023-10-19T03:10:13;108.43;;;67.65;;
50563;SDS011;36514;52.590;21.448;2023-10-19T03:20:09;120.04;;;71.59;;
50563;SDS011;36514;52.590;21.448;2023-10-19T03:30:07;108.80;;;70.21;;
50563;SDS011;36514;52.590;21.448;2023-10-19T03:40:03;177.05;;;84.50;;
50563;SDS011;36514;52.590;21.448;2023-10-19T03:49:54;134.52;;;75.28;;
50563;SDS011;36514;52.590;21.448;2023-10-19T03:59:48;138.81;;;82.31;;
50563;SDS011;36514;52.590;21.448;2023-10-19T04:09:39;115.15;;;62.20;;
50563;SDS011;36514;52.590;21.448;2023-10-19T04:19:36;138.91;;;80.03;;
50563;SDS011;36514;52.590;21.448;2023-10-19T04:29:32;156.65;;;85.79;;
50563;SDS011;36514;52.590;21.448;2023-10-19T04:39:24;155.52;;;83.44;;
50563;SDS011;36514;52.590;21.448;2023-10-19T04:49:13;160.35;;;86.50;;
50563;SDS011;36514;52.590;21.448;2023-10-19T04:59:11;165.12;;;94.75;;
50563;SDS011;36514;52.590;21.448;2023-10-19T05:09:35;146.32;;;86.48;;
50563;SDS011;36514;52.590;21.448;2023-10-19T05:19:23;145.06;;;79.42;;
50563;SDS011;36514;52.590;21.448;2023-10-19T05:29:20;153.23;;;85.20;;
50563;SDS011;36514;52.590;21.448;2023-10-19T05:39:18;151.94;;;87.75;;
50563;SDS011;36514;52.590;21.448;2023-10-19T05:49:15;138.44;;;77.81;;
50563;SDS011;36514;52.590;21.448;2023-10-19T05:59:11;108.37;;;68.88;;
50563;SDS011;36514;52.590;21.448;2023-10-19T06:09:09;99.03;;;62.85;;
50563;SDS011;36514;52.590;21.448;2023-10-19T06:19:07;89.02;;;57.04;;
50563;SDS011;36514;52.590;21.448;2023-10-19T06:29:05;66.80;;;46.72;;
50563;SDS011;36514;52.590;21.448;2023-10-19T06:39:02;65.90;;;46.17;;
50563;SDS011;36514;52.590;21.448;2023-10-19T06:49:01;68.54;;;46.60;;
50563;SDS011;36514;52.590;21.448;2023-10-19T06:58:59;145.26;;;104.26;;
50563;SDS011;36514;52.590;21.448;2023-10-19T07:08:57;52.08;;;38.01;;
50563;SDS011;36514;52.590;21.448;2023-10-19T07:18:56;54.69;;;35.05;;
50563;SDS011;36514;52.590;21.448;2023-10-19T07:28:54;47.31;;;33.43;;
50563;SDS011;36514;52.590;21.448;2023-10-19T07:38:54;45.00;;;32.16;;
50563;SDS011;36514;52.590;21.448;2023-10-19T07:48:54;40.63;;;26.84;;
50563;SDS011;36514;52.590;21.448;2023-10-19T07:58:53;32.71;;;25.95;;
50563;SDS011;36514;52.590;21.448;2023-10-19T08:08:54;29.03;;;24.20;;
50563;SDS011;36514;52.590;21.448;2023-10-19T08:18:53;29.08;;;22.80;;
50563;SDS011;36514;52.590;21.448;2023-10-19T08:28:53;24.74;;;21.63;;
50563;SDS011;36514;52.590;21.448;2023-10-19T08:38:46;22.10;;;18.10;;
50563;SDS011;36514;52.590;21.448;2023-10-19T08:48:41;18.00;;;16.17;;
50563;SDS011;36514;52.590;21.448;2023-10-19T08:58:37;20.40;;;17.73;;
50563;SDS011;36514;52.590;21.448;2023-10-19T09:08:34;19.67;;;16.50;;
50563;SDS011;36514;52.590;21.448;2023-10-19T09:18:33;21.75;;;15.30;;
50563;SDS011;36514;52.590;21.448;2023-10-19T09:28:37;16.84;;;14.85;;
50563;SDS011;36514;52.590;21.448;2023-10-19T09:38:31;17.78;;;14.08;;
50563;SDS011;36514;52.590;21.448;2023-10-19T09:48:24;19.05;;;15.39;;
50563;SDS011;36514;52.590;21.448;2023-10-19T09:58:22;19.85;;;16.66;;
50563;SDS011;36514;52.590;21.448;2023-10-19T10:18:17;21.28;;;18.70;;
50563;SDS011;36514;52.590;21.448;2023-10-19T10:28:07;20.25;;;17.30;;
50563;SDS011;36514;52.590;21.448;2023-10-19T10:38:06;29.08;;;15.63;;
50563;SDS011;36514;52.590;21.448;2023-10-19T10:47:59;16.97;;;15.08;;
50563;SDS011;36514;52.590;21.448;2023-10-19T10:57:50;20.98;;;15.38;;
50563;SDS011;36514;52.590;21.448;2023-10-19T11:17:59;19.06;;;16.61;;
50563;SDS011;36514;52.590;21.448;2023-10-19T11:27:57;19.91;;;17.13;;
50563;SDS011;36514;52.590;21.448;2023-10-19T11:37:54;23.36;;;18.89;;
50563;SDS011;36514;52.590;21.448;2023-10-19T11:47:52;23.87;;;18.56;;
50563;SDS011;36514;52.590;21.448;2023-10-19T11:57:51;19.22;;;16.91;;
50563;SDS011;36514;52.590;21.448;2023-10-19T12:07:47;42.35;;;33.80;;
50563;SDS011;36514;52.590;21.448;2023-10-19T12:17:42;47.25;;;28.69;;
50563;SDS011;36514;52.590;21.448;2023-10-19T12:27:38;21.91;;;19.02;;
50563;SDS011;36514;52.590;21.448;2023-10-19T12:37:38;19.28;;;16.49;;
50563;SDS011;36514;52.590;21.448;2023-10-19T12:47:29;20.73;;;16.77;;
50563;SDS011;36514;52.590;21.448;2023-10-19T12:57:21;16.05;;;13.40;;
50563;SDS011;36514;52.590;21.448;2023-10-19T13:07:14;18.80;;;14.20;;
50563;SDS011;36514;52.590;21.448;2023-10-19T13:17:06;14.13;;;12.27;;
50563;SDS011;36514;52.590;21.448;2023-10-19T13:26:59;20.02;;;13.23;;
50563;SDS011;36514;52.590;21.448;2023-10-19T13:36:51;18.00;;;16.08;;
50563;SDS011;36514;52.590;21.448;2023-10-19T13:46:48;26.96;;;22.05;;
50563;SDS011;36514;52.590;21.448;2023-10-19T13:56:44;31.06;;;23.10;;
50563;SDS011;36514;52.590;21.448;2023-10-19T14:06:39;30.34;;;25.14;;
50563;SDS011;36514;52.590;21.448;2023-10-19T14:16:35;33.88;;;24.83;;
50563;SDS011;36514;52.590;21.448;2023-10-19T14:26:32;35.12;;;25.97;;
50563;SDS011;36514;52.590;21.448;2023-10-19T14:36:27;32.92;;;26.39;;
50563;SDS011;36514;52.590;21.448;2023-10-19T14:46:24;41.79;;;27.00;;
50563;SDS011;36514;52.590;21.448;2023-10-19T14:56:20;44.12;;;28.89;;
50563;SDS011;36514;52.590;21.448;2023-10-19T15:06:18;35.52;;;26.33;;
50563;SDS011;36514;52.590;21.448;2023-10-19T15:16:14;34.16;;;26.29;;
50563;SDS011;36514;52.590;21.448;2023-10-19T15:26:16;36.16;;;26.05;;
50563;SDS011;36514;52.590;21.448;2023-10-19T15:36:11;31.47;;;23.81;;
50563;SDS011;36514;52.590;21.448;2023-10-19T15:46:07;33.50;;;26.11;;
50563;SDS011;36514;52.590;21.448;2023-10-19T15:56:04;33.31;;;25.86;;
50563;SDS011;36514;52.590;21.448;2023-10-19T16:06:02;34.22;;;23.85;;
50563;SDS011;36514;52.590;21.448;2023-10-19T16:16:02;35.00;;;26.03;;
50563;SDS011;36514;52.590;21.448;2023-10-19T16:25:58;29.91;;;23.87;;
50563;SDS011;36514;52.590;21.448;2023-10-19T16:35:55;30.02;;;24.29;;
50563;SDS011;36514;52.590;21.448;2023-10-19T16:45:51;31.24;;;23.73;;
50563;SDS011;36514;52.590;21.448;2023-10-19T16:55:47;26.50;;;21.91;;
50563;SDS011;36514;52.590;21.448;2023-10-19T17:05:44;34.45;;;23.20;;
50563;SDS011;36514;52.590;21.448;2023-10-19T17:15:40;28.54;;;22.50;;
50563;SDS011;36514;52.590;21.448;2023-10-19T17:25:36;30.97;;;23.46;;
50563;SDS011;36514;52.590;21.448;2023-10-19T17:35:33;27.49;;;22.69;;
50563;SDS011;36514;52.590;21.448;2023-10-19T17:45:29;29.89;;;22.82;;
50563;SDS011;36514;52.590;21.448;2023-10-19T17:55:25;26.51;;;21.76;;
50563;SDS011;36514;52.590;21.448;2023-10-19T18:05:21;25.80;;;20.55;;
50563;SDS011;36514;52.590;21.448;2023-10-19T18:15:20;27.90;;;20.42;;
50563;SDS011;36514;52.590;21.448;2023-10-19T18:25:17;23.53;;;19.51;;
50563;SDS011;36514;52.590;21.448;2023-10-19T18:35:14;29.43;;;21.74;;
50563;SDS011;36514;52.590;21.448;2023-10-19T18:45:05;21.02;;;15.68;;
50563;SDS011;36514;52.590;21.448;2023-10-19T18:55:02;23.21;;;17.70;;
50563;SDS011;36514;52.590;21.448;2023-10-19T19:04:53;20.05;;;15.82;;
50563;SDS011;36514;52.590;21.448;2023-10-19T19:14:50;22.30;;;16.83;;
50563;SDS011;36514;52.590;21.448;2023-10-19T19:24:46;23.53;;;18.89;;
50563;SDS011;36514;52.590;21.448;2023-10-19T19:34:42;24.63;;;18.90;;
50563;SDS011;36514;52.590;21.448;2023-10-19T19:44:39;34.40;;;22.52;;
50563;SDS011;36514;52.590;21.448;2023-10-19T19:54:36;33.48;;;25.85;;
50563;SDS011;36514;52.590;21.448;2023-10-19T20:04:33;32.10;;;23.85;;
50563;SDS011;36514;52.590;21.448;2023-10-19T20:14:30;34.69;;;26.23;;
50563;SDS011;36514;52.590;21.448;2023-10-19T20:24:27;34.78;;;26.89;;
50563;SDS011;36514;52.590;21.448;2023-10-19T20:34:23;42.84;;;28.98;;
50563;SDS011;36514;52.590;21.448;2023-10-19T20:44:20;43.74;;;31.10;;
50563;SDS011;36514;52.590;21.448;2023-10-19T20:54:16;43.26;;;29.24;;
50563;SDS011;36514;52.590;21.448;2023-10-19T21:04:13;46.32;;;32.10;;
50563;SDS011;36514;52.590;21.448;2023-10-19T21:14:10;50.24;;;33.69;;
50563;SDS011;36514;52.590;21.448;2023-10-19T21:24:07;55.03;;;36.84;;
50563;SDS011;36514;52.590;21.448;2023-10-19T21:34:05;51.11;;;35.14;;
50563;SDS011;36514;52.590;21.448;2023-10-19T21:44:02;55.36;;;36.68;;
50563;SDS011;36514;52.590;21.448;2023-10-19T21:53:58;61.05;;;39.18;;
50563;SDS011;36514;52.590;21.448;2023-10-19T22:03:55;83.34;;;47.19;;
50563;SDS011;36514;52.590;21.448;2023-10-19T22:13:51;77.86;;;47.56;;
50563;SDS011;36514;52.590;21.448;2023-10-19T22:23:48;76.58;;;44.86;;
50563;SDS011;36514;52.590;21.448;2023-10-19T22:33:44;72.38;;;43.39;;
50563;SDS011;36514;52.590;21.448;2023-10-19T22:43:41;62.69;;;38.60;;
50563;SDS011;36514;52.590;21.448;2023-10-19T22:53:37;56.85;;;36.46;;
50563;SDS011;36514;52.590;21.448;2023-10-19T23:03:33;50.03;;;32.36;;
50563;SDS011;36514;52.590;21.448;2023-10-19T23:13:29;44.47;;;28.90;;
50563;SDS011;36514;52.590;21.448;2023-10-19T23:23:25;40.25;;;27.76;;
50563;SDS011;36514;52.590;21.448;2023-10-19T23:33:21;36.84;;;25.76;;
50563;SDS011;36514;52.590;21.448;2023-10-19T23:43:20;38.44;;;26.72;;
50563;SDS011;36514;52.590;21.448;2023-10-19T23:53:17;36.18;;;26.15;;
